Orbital elements of COSMOS 970 DEB
| Launched | 20 December 1977 |
| Flight ended | – |
| Launch site | Tyuratam Missile and Space Center, Kazakhstan (Also known as Baikonur Cosmodrome) |
| Owner | Commonwealth of Independent States (former USSR) |
| NORAD ID | 10890 |
| Date fetched |
Epoch osculation |
Inc. [°] |
Ecc. | RA asc node [hr] |
Arg Peri. [°] |
Mean anom [°] |
Mean motion [rev/day] |
Abs. mag |
| Date fetched |
Epoch osculation |
Inc. [°] |
Ecc. | RA asc node [hr] |
Arg Peri. [°] |
Mean anom [°] |
Mean motion [rev/day] |
Abs. mag |
| 2026 May 03 17:57 | 2026 Apr 30 10:27:41 | 65.7789 | 0.01326 | 23.8206 | 7.1870 | 169.6266 | 13.71383 | – |
| 2026 May 02 17:57 | 2026 Apr 30 10:27:41 | 65.7789 | 0.01326 | 23.8206 | 7.1870 | 169.6266 | 13.71383 | – |
| 2026 May 01 17:56 | 2026 Apr 30 10:27:41 | 65.7789 | 0.01326 | 23.8206 | 7.1870 | 169.6266 | 13.71383 | – |
| 2026 Apr 30 17:56 | 2026 Apr 30 10:27:41 | 65.7789 | 0.01326 | 23.8206 | 7.1870 | 169.6266 | 13.71383 | – |
| 2026 Apr 29 17:57 | 2026 Apr 24 05:13:21 | 65.7793 | 0.01321 | 0.8410 | 10.1293 | 169.6266 | 13.71383 | – |
| 2026 Apr 28 17:56 | 2026 Apr 24 05:13:21 | 65.7793 | 0.01321 | 0.8410 | 10.1293 | 169.6266 | 13.71383 | – |
| 2026 Apr 27 17:58 | 2026 Apr 24 05:13:21 | 65.7793 | 0.01321 | 0.8410 | 10.1293 | 169.6266 | 13.71383 | – |
| 2026 Apr 26 17:58 | 2026 Apr 24 05:13:21 | 65.7793 | 0.01321 | 0.8410 | 10.1293 | 169.6266 | 13.71383 | – |
| 2026 Apr 25 17:58 | 2026 Apr 24 05:13:21 | 65.7793 | 0.01321 | 0.8410 | 10.1293 | 169.6266 | 13.71383 | – |
| 2026 Apr 24 17:59 | 2026 Apr 24 05:13:21 | 65.7793 | 0.01321 | 0.8410 | 10.1293 | 169.6266 | 13.71383 | – |
| 2026 Apr 23 17:57 | 2026 Apr 19 11:56:25 | 65.7792 | 0.01317 | 1.6155 | 12.3600 | 169.6266 | 13.71383 | – |
| 2026 Apr 22 17:57 | 2026 Apr 19 11:56:25 | 65.7792 | 0.01317 | 1.6155 | 12.3600 | 169.6266 | 13.71383 | – |
| 2026 Apr 21 17:57 | 2026 Apr 19 11:56:25 | 65.7792 | 0.01317 | 1.6155 | 12.3600 | 169.6266 | 13.71383 | – |
| 2026 Apr 20 17:57 | 2026 Apr 19 11:56:25 | 65.7792 | 0.01317 | 1.6155 | 12.3600 | 169.6266 | 13.71383 | – |
| 2026 Apr 19 17:58 | 2026 Apr 19 11:56:25 | 65.7792 | 0.01317 | 1.6155 | 12.3600 | 169.6266 | 13.71383 | – |
| 2026 Apr 18 17:56 | 2026 Apr 13 07:05:45 | 65.7786 | 0.01312 | 2.6332 | 15.2950 | 169.6266 | 13.71383 | – |
| 2026 Apr 16 17:57 | 2026 Apr 13 07:05:45 | 65.7786 | 0.01312 | 2.6332 | 15.2950 | 169.6266 | 13.71383 | – |
| 2026 Apr 14 17:57 | 2026 Apr 13 07:05:45 | 65.7786 | 0.01312 | 2.6332 | 15.2950 | 169.6266 | 13.71383 | – |
| 2026 Apr 13 17:57 | 2026 Apr 13 07:05:45 | 65.7786 | 0.01312 | 2.6332 | 15.2950 | 169.6266 | 13.71383 | – |
| 2026 Apr 12 17:57 | 2026 Apr 08 15:11:15 | 65.7779 | 0.01308 | 3.3983 | 17.5187 | 169.6266 | 13.71383 | – |
| 2026 Apr 11 17:57 | 2026 Apr 08 15:11:15 | 65.7779 | 0.01308 | 3.3983 | 17.5187 | 169.6266 | 13.71383 | – |
| 2026 Apr 10 17:58 | 2026 Apr 08 15:11:15 | 65.7779 | 0.01308 | 3.3983 | 17.5187 | 169.6266 | 13.71383 | – |
| 2026 Apr 09 18:01 | 2026 Apr 08 15:11:15 | 65.7779 | 0.01308 | 3.3983 | 17.5187 | 169.6266 | 13.71383 | – |
| 2026 Apr 08 17:57 | 2026 Apr 08 15:11:15 | 65.7779 | 0.01308 | 3.3983 | 17.5187 | 169.6266 | 13.71383 | – |
| 2026 Apr 07 17:57 | 2026 Apr 02 08:33:19 | 65.7767 | 0.01302 | 4.4283 | 20.5404 | 169.6266 | 13.71383 | – |
| 2026 Apr 06 17:57 | 2026 Apr 02 08:33:19 | 65.7767 | 0.01302 | 4.4283 | 20.5404 | 169.6266 | 13.71383 | – |